Accueil
METAR-TAF:

METAR-TAF

Aéroports :

Aéroport de Castres-Mazamet

Castres, France

latitude: 43-33-25N, longitude: 2-17-21E, altitude: 239 m

Observation

Le bulletin a été fait il y a 33 minutes, à 05:00 UTC
Vent 3 kt de est/sud-est
Température 6°C
Humidité 70%
Pression 1025 hPa
Visibilité 10 km ou plus
pas de nuages en-dessous de 1500 mètres et pas de cumulonimbus.

METAR: LFCK 240500Z AUTO 11003KT CAVOK 06/01 Q1025

Heure: 06:33 (05:33 UTC)

Prévision

Le bulletin a été fait il y a 12 heures et 33 minutes, à 17:00 UTC
Prévision valable du 23 à 18 UTC au 24 à 03 UTC
Vent 2 kt de direction variable
Visibilité 10 km ou plus
pas de nuages en-dessous de 1500 mètres et pas de cumulonimbus.
Temporairement
du 23 à 19 UTC au 24 à 03 UTC
Vent 5 kt de est/sud-est

TAF: LFCK 231700Z 2318/2403 VRB02KT CAVOK TEMPO 2319/2403 11005KT

Observations et prévisions météorologiques de plus de 4000 aéroports (messages METAR et TAF).

Les stations disponibles sont représentées par des disques jaunes et rouges sur la carte.

Passer la souris dessus pour voir le nom de la station.

Cliquer dessus pour voir les observations et prévisions météorologiques.

Pour changer de carte: cliquez sur les boutons verts avec une croix noire pour zoomer, sur le bouton vert avec un tiret pour effectuer un zoom arrière, ou sur les flèches vertes pour les cartes adjacentes.


METAR-TAF: